Time;durP1;ratioP1;P1;durP2;ratioP2;P2;SDS_P1;SDS_P2;PMS_P1;PMS_P2;Temp;Humidity;BMP_temperature;BMP_pressure;BME280_temperature;BME280_humidity;BME280_pressure;Samples;Min_cycle;Max_cycle;Signal;HPM_P1;HPM_P2
2022/09/13 00:02:07;;;;;;;18.58;11.88;;;17.80;99.90;;;;;;4993468;28;20113;-71
2022/09/13 00:04:41;;;;;;;19.42;11.18;;;17.70;99.90;;;;;;4993498;28;20046;-72
2022/09/13 00:07:06;;;;;;;18.27;11.10;;;17.70;99.90;;;;;;5013170;28;20108;-72
2022/09/13 00:09:32;;;;;;;18.05;11.80;;;17.70;99.90;;;;;;5010041;28;20037;-72
2022/09/13 00:11:58;;;;;;;16.98;10.85;;;17.70;99.90;;;;;;5013186;28;20087;-72
2022/09/13 00:14:27;;;;;;;18.38;11.02;;;17.70;99.90;;;;;;4991509;28;20048;-73
2022/09/13 00:16:53;;;;;;;16.90;10.73;;;17.60;99.90;;;;;;4993481;28;20080;-73
2022/09/13 00:19:18;;;;;;;17.85;11.25;;;17.60;99.90;;;;;;5009486;28;20082;-73
2022/09/13 00:21:47;;;;;;;18.95;11.90;;;17.60;99.90;;;;;;4985363;28;20389;-72
2022/09/13 00:24:13;;;;;;;16.85;11.18;;;17.60;99.90;;;;;;5010486;28;20073;-71
2022/09/13 00:26:39;;;;;;;18.17;12.25;;;17.60;99.90;;;;;;5018227;28;20076;-74
2022/09/13 00:29:07;;;;;;;20.95;12.57;;;17.60;99.90;;;;;;5016541;28;20084;-73
2022/09/13 00:31:33;;;;;;;21.00;13.88;;;17.50;99.90;;;;;;5015963;28;20041;-73
2022/09/13 00:33:59;;;;;;;18.38;12.52;;;17.50;99.90;;;;;;4997402;28;20407;-72
2022/09/13 00:36:25;;;;;;;21.58;14.23;;;17.50;99.90;;;;;;4994478;28;20595;-72
2022/09/13 00:38:50;;;;;;;22.25;13.35;;;17.50;99.90;;;;;;5013887;28;20066;-73
2022/09/13 00:41:19;;;;;;;19.67;13.15;;;16.00;99.90;;;;;;5013009;28;20124;-73
2022/09/13 00:43:47;;;;;;;19.02;12.82;;;17.50;99.90;;;;;;5024473;28;20033;-72
2022/09/13 00:46:43;;;;;;;20.10;13.20;;;17.50;99.90;;;;;;4997545;28;20175;-72
2022/09/13 00:49:47;;;;;;;21.00;13.50;;;17.50;99.90;;;;;;4995990;28;20368;-72
2022/09/13 00:52:17;;;;;;;18.85;13.45;;;17.50;99.90;;;;;;5011947;28;20045;-72
2022/09/13 00:54:48;;;;;;;20.58;12.32;;;17.50;99.90;;;;;;5010780;28;20053;-72
2022/09/13 00:57:17;;;;;;;21.50;14.63;;;17.50;99.90;;;;;;5011785;28;20041;-72
2022/09/13 01:00:04;;;;;;;21.67;14.77;;;17.50;99.90;;;;;;5015292;28;20041;-72
2022/09/13 01:02:30;;;;;;;22.38;14.85;;;17.50;99.90;;;;;;5011597;28;20037;-72
2022/09/13 01:04:59;;;;;;;23.25;14.80;;;17.50;99.90;;;;;;5000353;28;20496;-72
2022/09/13 01:07:25;;;;;;;20.90;15.25;;;17.50;99.90;;;;;;5004760;28;20050;-72
2022/09/13 01:09:52;;;;;;;26.23;17.50;;;17.50;99.90;;;;;;4996179;28;20045;-72
2022/09/13 01:12:35;;;;;;;24.05;17.20;;;17.40;99.90;;;;;;4996434;28;20033;-72
2022/09/13 01:15:04;;;;;;;25.15;16.92;;;17.50;99.90;;;;;;5014651;28;20389;-72
2022/09/13 01:17:32;;;;;;;26.52;17.17;;;17.50;99.90;;;;;;5014362;28;20492;-72
2022/09/13 01:20:00;;;;;;;23.15;16.52;;;17.40;99.90;;;;;;5014723;28;20049;-72
2022/09/13 01:22:31;;;;;;;23.85;15.90;;;17.40;99.90;;;;;;5016072;28;20441;-71
2022/09/13 01:25:44;;;;;;;22.30;15.60;;;17.40;99.90;;;;;;5016149;28;20042;-72
2022/09/13 01:28:37;;;;;;;21.33;14.38;;;17.40;99.90;;;;;;5006004;28;20053;-72
2022/09/13 01:31:30;;;;;;;24.77;15.52;;;17.40;99.90;;;;;;5011854;28;20041;-72
2022/09/13 01:34:34;;;;;;;21.48;14.38;;;16.30;99.90;;;;;;5013829;28;20120;-72
2022/09/13 01:37:32;;;;;;;21.63;13.23;;;17.40;99.90;;;;;;5003632;28;20123;-72
2022/09/13 01:40:08;;;;;;;19.17;12.80;;;17.40;99.90;;;;;;4986055;28;20478;-72
2022/09/13 01:42:59;;;;;;;19.65;12.07;;;17.40;99.90;;;;;;5002112;28;20045;-73
2022/09/13 01:45:31;;;;;;;17.75;12.15;;;17.40;99.90;;;;;;5001006;28;20436;-71
2022/09/13 01:47:59;;;;;;;19.30;11.85;;;17.40;99.90;;;;;;5021588;28;20049;-72
2022/09/13 01:50:52;;;;;;;18.85;11.10;;;17.40;99.90;;;;;;4995911;28;20045;-72
2022/09/13 01:53:22;;;;;;;16.08;10.35;;;17.40;99.90;;;;;;4998215;28;20038;-72
2022/09/13 01:56:02;;;;;;;16.50;10.32;;;17.40;99.90;;;;;;5013129;28;20053;-72
2022/09/13 01:58:53;;;;;;;17.65;10.68;;;17.40;99.90;;;;;;5014786;28;20145;-72
2022/09/13 02:01:27;;;;;;;14.85;9.40;;;17.40;99.90;;;;;;5011865;28;20453;-71
2022/09/13 02:04:17;;;;;;;15.73;9.32;;;17.40;99.90;;;;;;5013787;28;20069;-72
2022/09/13 02:06:49;;;;;;;15.13;9.50;;;17.40;99.90;;;;;;5012701;28;20408;-72
2022/09/13 02:09:23;;;;;;;16.95;9.63;;;17.40;99.90;;;;;;5020597;28;20472;-71
2022/09/13 02:11:57;;;;;;;15.05;9.05;;;17.40;99.90;;;;;;5016010;28;20042;-72
2022/09/13 02:14:39;;;;;;;14.00;9.02;;;17.40;99.90;;;;;;4993957;28;20038;-71
2022/09/13 02:17:15;;;;;;;14.02;8.90;;;17.40;99.90;;;;;;4999146;28;20128;-72
2022/09/13 02:20:02;;;;;;;14.07;8.88;;;17.40;99.90;;;;;;5010927;28;20500;-72
2022/09/13 02:22:40;;;;;;;14.30;8.70;;;17.40;99.90;;;;;;5011654;28;20045;-72
2022/09/13 02:25:09;;;;;;;15.43;8.52;;;17.40;99.90;;;;;;4991150;28;20108;-71
2022/09/13 02:27:37;;;;;;;14.68;9.68;;;17.40;99.90;;;;;;5014592;28;20042;-72
2022/09/13 02:30:07;;;;;;;15.63;8.90;;;17.40;99.90;;;;;;5015203;28;20042;-72
2022/09/13 02:32:41;;;;;;;14.68;9.18;;;17.40;99.90;;;;;;5016056;28;20041;-72
2022/09/13 02:35:34;;;;;;;16.80;8.65;;;18.20;99.90;;;;;;4996665;28;20057;-71
2022/09/13 02:38:22;;;;;;;14.73;8.90;;;17.30;99.90;;;;;;5002047;28;20033;-71
2022/09/13 02:40:56;;;;;;;15.13;9.50;;;17.40;99.90;;;;;;5010798;28;20046;-72
2022/09/13 02:43:34;;;;;;;17.05;9.48;;;17.30;99.90;;;;;;5000787;28;20041;-72
2022/09/13 02:46:31;;;;;;;14.43;9.35;;;17.40;99.90;;;;;;5011991;28;20166;-72
2022/09/13 02:49:16;;;;;;;14.85;9.02;;;17.40;99.90;;;;;;5012736;28;20863;-72
2022/09/13 02:51:56;;;;;;;15.52;9.60;;;17.40;99.90;;;;;;5015550;28;20143;-72
2022/09/13 02:54:43;;;;;;;14.05;9.23;;;17.40;99.90;;;;;;5010390;28;20058;-71
2022/09/13 02:57:19;;;;;;;16.75;9.57;;;17.40;99.90;;;;;;5003725;28;20128;-72
2022/09/13 02:59:47;;;;;;;15.95;9.50;;;17.40;99.90;;;;;;4994803;28;20045;-72
2022/09/13 03:02:15;;;;;;;15.60;9.27;;;17.40;99.90;;;;;;5015971;28;20518;-72
2022/09/13 03:04:44;;;;;;;14.30;9.52;;;17.40;99.90;;;;;;5011561;28;20040;-72
2022/09/13 03:07:14;;;;;;;16.75;10.18;;;17.40;99.90;;;;;;5011570;28;20033;-72
2022/09/13 03:09:54;;;;;;;14.43;9.55;;;17.50;99.90;;;;;;4995510;28;20385;-72
2022/09/13 03:12:42;;;;;;;16.02;10.13;;;17.50;99.90;;;;;;4996392;28;20042;-72
2022/09/13 03:15:29;;;;;;;16.70;9.73;;;17.50;99.90;;;;;;5012042;28;20083;-71
2022/09/13 03:18:34;;;;;;;14.93;7.90;;;17.50;99.90;;;;;;4997166;28;20100;-72
2022/09/13 03:21:27;;;;;;;13.55;7.72;;;17.50;99.90;;;;;;4985020;28;20049;-72
2022/09/13 03:24:17;;;;;;;11.30;5.80;;;17.40;99.90;;;;;;4966657;28;20049;-72
2022/09/13 03:27:08;;;;;;;9.00;3.67;;;17.40;99.90;;;;;;5012697;28;20088;-72
2022/09/13 03:29:55;;;;;;;8.65;2.72;;;17.30;99.90;;;;;;4992153;28;20056;-72
2022/09/13 03:32:42;;;;;;;7.57;2.20;;;17.20;99.90;;;;;;4998480;28;20432;-72
2022/09/13 03:35:24;;;;;;;8.98;2.60;;;17.20;99.90;;;;;;5002171;28;20052;-73
2022/09/13 03:38:07;;;;;;;8.52;2.40;;;17.20;99.90;;;;;;5009263;28;20046;-73
2022/09/13 03:40:38;;;;;;;;;;;17.10;99.90;;;;;;5019739;28;20120;-73
2022/09/13 03:43:24;;;;;;;8.52;2.53;;;17.10;99.90;;;;;;5009297;28;19944;-73
2022/09/13 03:46:02;;;;;;;7.57;2.50;;;17.10;99.90;;;;;;5014228;28;20534;-73
2022/09/13 03:48:35;;;;;;;7.20;2.40;;;17.10;99.90;;;;;;5011969;28;20038;-73
2022/09/13 03:51:01;;;;;;;8.15;2.55;;;17.20;99.90;;;;;;5016728;28;20127;-72
2022/09/13 03:53:29;;;;;;;9.07;2.72;;;17.20;99.90;;;;;;5016037;28;20526;-72
2022/09/13 03:55:55;;;;;;;8.50;2.53;;;17.20;99.90;;;;;;5011264;28;20049;-71
2022/09/13 03:58:21;;;;;;;7.38;2.67;;;17.20;99.90;;;;;;5020188;28;20066;-72
2022/09/13 04:00:47;;;;;;;7.13;1.88;;;17.20;99.90;;;;;;5027536;28;20116;-72
2022/09/13 04:03:14;;;;;;;5.38;1.98;;;17.20;99.90;;;;;;4998187;28;20048;-72
2022/09/13 04:05:39;;;;;;;4.93;1.83;;;17.20;99.90;;;;;;4980519;28;20403;-72
2022/09/13 04:08:06;;;;;;;6.72;1.98;;;17.30;99.90;;;;;;5006640;28;20041;-72
2022/09/13 04:10:36;;;;;;;5.97;2.08;;;17.30;99.90;;;;;;5017449;28;20041;-72
2022/09/13 04:13:02;;;;;;;7.35;2.40;;;17.30;99.90;;;;;;5016786;28;20516;-72
2022/09/13 04:15:32;;;;;;;7.25;2.40;;;17.30;99.90;;;;;;5020716;28;20042;-72
2022/09/13 04:17:58;;;;;;;8.27;2.85;;;17.30;99.90;;;;;;5018910;28;20086;-72
2022/09/13 04:20:24;;;;;;;8.18;3.08;;;17.30;99.90;;;;;;5019122;28;20076;-72
2022/09/13 04:22:52;;;;;;;9.35;3.00;;;17.40;99.90;;;;;;5020703;28;20056;-72
2022/09/13 04:25:19;;;;;;;8.70;2.97;;;17.30;99.90;;;;;;5018907;28;20046;-72
2022/09/13 04:27:45;;;;;;;7.75;2.80;;;17.30;99.90;;;;;;5003156;28;20377;-72
2022/09/13 04:30:11;;;;;;;6.45;2.42;;;17.30;99.90;;;;;;5017705;28;20445;-72
2022/09/13 04:32:37;;;;;;;7.15;2.60;;;17.30;99.90;;;;;;5023313;28;20045;-72
2022/09/13 04:35:03;;;;;;;7.30;2.72;;;17.30;99.90;;;;;;5011626;28;20558;-73
2022/09/13 04:37:28;;;;;;;7.03;2.42;;;17.30;99.90;;;;;;5001668;28;20053;-73
2022/09/13 04:39:54;;;;;;;7.35;2.42;;;17.30;99.90;;;;;;5020047;28;20034;-73
2022/09/13 04:42:20;;;;;;;9.75;2.80;;;17.30;99.90;;;;;;5010179;28;20113;-73
2022/09/13 04:44:48;;;;;;;7.53;2.22;;;17.20;99.90;;;;;;5016184;28;20038;-72
2022/09/13 04:47:14;;;;;;;6.22;2.10;;;17.20;99.90;;;;;;5001481;28;20096;-71
2022/09/13 04:49:40;;;;;;;8.23;2.33;;;17.20;99.90;;;;;;5002075;28;20046;-72
2022/09/13 04:52:07;;;;;;;5.68;1.73;;;17.20;99.90;;;;;;5014086;28;20313;-71
2022/09/13 04:54:33;;;;;;;3.65;1.60;;;17.20;99.90;;;;;;5015354;28;20058;-72
2022/09/13 04:56:59;;;;;;;4.00;1.40;;;17.20;99.90;;;;;;5017860;28;20099;-71
2022/09/13 04:59:24;;;;;;;6.75;1.80;;;17.20;99.90;;;;;;5018291;28;20042;-73
2022/09/13 05:01:50;;;;;;;5.75;1.70;;;17.10;99.90;;;;;;5004033;28;20037;-71
2022/09/13 05:04:16;;;;;;;5.38;1.65;;;17.10;99.90;;;;;;5018403;28;20044;-71
2022/09/13 05:06:42;;;;;;;4.55;1.55;;;17.10;99.90;;;;;;5007988;28;20116;-73
2022/09/13 05:09:12;;;;;;;7.40;1.90;;;17.10;99.90;;;;;;5003400;28;20056;-72
2022/09/13 05:11:38;;;;;;;7.03;1.73;;;17.10;99.90;;;;;;5000852;28;20041;-72
2022/09/13 05:14:04;;;;;;;4.90;1.70;;;17.10;99.90;;;;;;5022584;28;20048;-72
2022/09/13 05:16:32;;;;;;;6.25;1.70;;;17.10;99.90;;;;;;4996218;28;20466;-71
2022/09/13 05:19:01;;;;;;;9.07;2.45;;;16.20;99.90;;;;;;5015429;28;20104;-72
2022/09/13 05:21:27;;;;;;;6.72;2.35;;;17.10;99.90;;;;;;5014117;28;20485;-71
2022/09/13 05:23:53;;;;;;;8.77;2.50;;;17.10;99.90;;;;;;5023299;28;20045;-72
2022/09/13 05:26:20;;;;;;;8.25;3.10;;;17.20;99.90;;;;;;5013763;28;20124;-72
2022/09/13 05:28:48;;;;;;;8.30;2.85;;;16.70;99.90;;;;;;5004448;28;20515;-73
2022/09/13 05:31:20;;;;;;;6.45;2.40;;;17.10;99.90;;;;;;5010715;28;20053;-73
2022/09/13 05:33:53;;;;;;;6.38;2.25;;;17.10;99.90;;;;;;5012673;28;21620;-72
2022/09/13 05:36:19;;;;;;;6.28;2.08;;;17.10;99.90;;;;;;4997056;28;20046;-72
2022/09/13 05:38:45;;;;;;;7.13;2.10;;;17.10;99.90;;;;;;5013129;28;20038;-72
2022/09/13 05:41:11;;;;;;;8.18;2.20;;;17.10;99.90;;;;;;4993221;28;20069;-72
2022/09/13 05:43:37;;;;;;;10.38;2.30;;;17.10;99.90;;;;;;5002182;28;20455;-72
2022/09/13 05:46:12;;;;;;;5.47;1.80;;;17.10;99.90;;;;;;5012954;28;20049;-72
2022/09/13 05:48:38;;;;;;;7.55;1.80;;;17.00;99.90;;;;;;5009923;28;20050;-71
2022/09/13 05:51:06;;;;;;;9.20;2.00;;;17.00;99.90;;;;;;5016586;28;20128;-71
2022/09/13 05:53:33;;;;;;;8.40;1.98;;;17.00;99.90;;;;;;5016594;28;20045;-72
2022/09/13 05:55:59;;;;;;;8.60;1.98;;;17.00;99.90;;;;;;4995123;28;20072;-71
2022/09/13 05:58:25;;;;;;;7.30;1.63;;;17.00;99.90;;;;;;5019145;28;20496;-71
2022/09/13 06:00:55;;;;;;;8.68;2.00;;;17.00;99.90;;;;;;5013498;28;20033;-71
2022/09/13 06:03:24;;;;;;;8.07;1.90;;;17.00;99.90;;;;;;4998721;28;20499;-71
2022/09/13 06:05:55;;;;;;;7.72;1.95;;;17.00;99.90;;;;;;5010602;28;20049;-71
2022/09/13 06:08:21;;;;;;;9.80;1.80;;;17.00;99.90;;;;;;5016712;28;20319;-72
2022/09/13 06:11:14;;;;;;;9.38;2.00;;;17.00;99.90;;;;;;5005319;28;20477;-72
2022/09/13 06:13:41;;;;;;;11.52;2.17;;;17.10;99.90;;;;;;5017716;28;20216;-71
2022/09/13 06:16:09;;;;;;;9.98;2.08;;;17.10;99.90;;;;;;5018874;28;20041;-71
2022/09/13 06:18:35;;;;;;;8.48;2.08;;;17.10;99.90;;;;;;5008024;28;20115;-71
2022/09/13 06:21:04;;;;;;;12.20;1.88;;;17.20;99.90;;;;;;5011309;28;20037;-71
2022/09/13 06:23:31;;;;;;;7.85;2.00;;;;;;;;;;5020606;28;20565;-71
2022/09/13 06:26:08;;;;;;;9.23;2.20;;;17.30;99.90;;;;;;5015035;28;20034;-71
2022/09/13 06:28:35;;;;;;;9.25;1.88;;;17.30;99.90;;;;;;5001256;28;20116;-71
2022/09/13 06:31:09;;;;;;;9.32;2.08;;;17.30;99.90;;;;;;5022270;28;20070;-71
2022/09/13 06:33:37;;;;;;;13.95;2.20;;;17.30;99.90;;;;;;5016716;28;20048;-71
2022/09/13 06:36:10;;;;;;;9.50;1.92;;;17.30;99.90;;;;;;5008200;28;20722;-71
2022/09/13 06:38:37;;;;;;;10.45;2.30;;;17.30;99.90;;;;;;5015673;28;20041;-71
2022/09/13 06:41:09;;;;;;;13.63;2.20;;;17.40;99.90;;;;;;5003936;28;20037;-71
2022/09/13 06:43:35;;;;;;;12.93;2.63;;;17.40;99.90;;;;;;5017865;28;20075;-71
2022/09/13 06:46:06;;;;;;;10.00;2.22;;;17.40;99.90;;;;;;5022746;28;20304;-71
2022/09/13 06:48:37;;;;;;;8.00;1.88;;;17.50;99.90;;;;;;5016150;28;20045;-71
2022/09/13 06:51:07;;;;;;;6.78;1.83;;;17.50;99.90;;;;;;5016083;28;20091;-71
2022/09/13 06:53:34;;;;;;;10.75;2.25;;;17.60;99.90;;;;;;5012099;28;20049;-71
2022/09/13 06:56:05;;;;;;;8.63;1.83;;;17.60;99.90;;;;;;5014976;28;20057;-71
2022/09/13 06:58:31;;;;;;;11.25;2.05;;;17.60;99.90;;;;;;5014798;28;20175;-71
2022/09/13 07:01:25;;;;;;;9.35;2.00;;;17.60;99.90;;;;;;5019252;28;20044;-71
2022/09/13 07:04:02;;;;;;;9.07;1.83;;;17.70;99.90;;;;;;5014855;28;20130;-71
2022/09/13 07:06:30;;;;;;;10.55;2.08;;;17.80;99.90;;;;;;5019068;28;20046;-71
2022/09/13 07:08:58;;;;;;;17.70;2.03;;;17.90;99.90;;;;;;5013615;28;20034;-71
2022/09/13 07:11:27;;;;;;;8.15;1.83;;;17.90;99.90;;;;;;5017223;28;20116;-71
2022/09/13 07:13:56;;;;;;;10.30;2.28;;;18.00;99.90;;;;;;5016888;28;20042;-71
2022/09/13 07:16:27;;;;;;;9.95;2.00;;;18.00;99.90;;;;;;5019296;28;20041;-71
2022/09/13 07:18:55;;;;;;;7.93;1.70;;;18.10;99.90;;;;;;4992866;28;20127;-71
2022/09/13 07:21:22;;;;;;;8.23;2.10;;;18.10;99.90;;;;;;5020920;28;20041;-71
2022/09/13 07:23:51;;;;;;;11.32;1.88;;;18.20;99.90;;;;;;5020441;28;20456;-71
2022/09/13 07:26:20;;;;;;;8.43;1.77;;;18.20;99.90;;;;;;5021368;28;20068;-71
2022/09/13 07:28:51;;;;;;;8.45;1.80;;;18.20;99.90;;;;;;5020750;28;20099;-71
2022/09/13 07:31:34;;;;;;;5.90;1.50;;;18.30;99.90;;;;;;5020630;28;20117;-72
2022/09/13 07:34:01;;;;;;;;;;;18.30;99.90;;;;;;5010027;28;20057;-72
2022/09/13 07:36:28;;;;;;;9.43;1.77;;;18.30;99.90;;;;;;5021009;28;19924;-72
2022/09/13 07:38:54;;;;;;;11.20;2.45;;;18.30;99.90;;;;;;5000113;28;20124;-72
2022/09/13 07:41:22;;;;;;;7.60;1.67;;;18.30;99.90;;;;;;5013219;28;20052;-71
2022/09/13 07:43:59;;;;;;;9.27;1.58;;;18.20;99.90;;;;;;4997576;28;20041;-71
2022/09/13 07:46:32;;;;;;;6.65;1.58;;;18.20;99.90;;;;;;5011448;28;20069;-71
2022/09/13 07:49:00;;;;;;;5.40;1.50;;;18.20;99.90;;;;;;5021320;28;20037;-72
2022/09/13 07:51:34;;;;;;;5.28;1.30;;;18.20;99.90;;;;;;4979314;28;20130;-71
2022/09/13 07:54:03;;;;;;;5.90;1.45;;;18.30;99.90;;;;;;5014837;28;20073;-71
2022/09/13 07:56:31;;;;;;;8.95;1.60;;;18.30;99.90;;;;;;5013807;28;20493;-72
2022/09/13 07:58:59;;;;;;;7.55;1.48;;;18.40;99.90;;;;;;4995291;28;20041;-72
2022/09/13 08:01:39;;;;;;;7.32;1.67;;;18.40;99.90;;;;;;4991943;28;20048;-71
2022/09/13 08:04:09;;;;;;;8.05;1.52;;;18.40;99.90;;;;;;4996955;28;20175;-71
2022/09/13 08:06:37;;;;;;;7.57;1.55;;;18.50;99.90;;;;;;4991762;28;20065;-71
2022/09/13 08:09:04;;;;;;;6.78;1.42;;;18.50;99.90;;;;;;5014559;28;20053;-71
2022/09/13 08:11:34;;;;;;;7.00;1.50;;;18.50;99.90;;;;;;4978062;28;20124;-72
2022/09/13 08:14:01;;;;;;;6.13;1.20;;;18.70;99.90;;;;;;5013563;28;20054;-72
2022/09/13 08:16:30;;;;;;;7.93;1.50;;;18.70;99.90;;;;;;5011093;28;20609;-72
2022/09/13 08:18:58;;;;;;;5.30;1.20;;;18.70;99.90;;;;;;5011547;28;20042;-72
2022/09/13 08:21:24;;;;;;;7.32;1.25;;;19.20;99.90;;;;;;5012337;28;20037;-71
2022/09/13 08:23:55;;;;;;;8.95;1.60;;;18.60;99.90;;;;;;5015292;28;20759;-71
2022/09/13 08:26:24;;;;;;;7.70;1.40;;;18.80;99.90;;;;;;4998333;28;20175;-71
2022/09/13 08:28:59;;;;;;;7.45;1.58;;;18.80;99.90;;;;;;4999744;28;20045;-71
2022/09/13 08:31:25;;;;;;;9.02;1.58;;;18.90;99.90;;;;;;5015828;28;20041;-71
2022/09/13 08:33:52;;;;;;;7.15;1.67;;;18.90;99.90;;;;;;5022981;28;20036;-71
2022/09/13 08:36:19;;;;;;;6.45;1.42;;;19.00;99.90;;;;;;5020096;28;20103;-71
2022/09/13 08:38:53;;;;;;;7.88;1.55;;;19.00;99.90;;;;;;5017735;28;20045;-72
2022/09/13 08:41:43;;;;;;;8.60;1.92;;;18.90;99.90;;;;;;5009571;28;20068;-72
2022/09/13 08:44:22;;;;;;;7.68;1.38;;;18.80;99.90;;;;;;5012036;28;20504;-71
2022/09/13 08:46:49;;;;;;;5.95;1.50;;;18.90;99.90;;;;;;5015928;28;20081;-71
2022/09/13 08:49:40;;;;;;;7.82;1.38;;;19.00;99.90;;;;;;4996010;28;20584;-71
2022/09/13 08:52:15;;;;;;;8.07;1.23;;;19.10;99.90;;;;;;5018937;28;20503;-73
2022/09/13 08:54:42;;;;;;;7.53;1.80;;;19.10;99.90;;;;;;4994239;28;20316;-73
2022/09/13 08:57:36;;;;;;;6.05;1.40;;;19.10;99.90;;;;;;5021538;28;20100;-72
2022/09/13 09:00:13;;;;;;;4.72;1.30;;;19.00;99.90;;;;;;4996978;28;20550;-72
2022/09/13 09:02:57;;;;;;;6.35;1.30;;;19.10;99.90;;;;;;5012511;28;20046;-72
2022/09/13 09:05:26;;;;;;;9.68;1.63;;;19.20;99.90;;;;;;5018507;28;20041;-71
2022/09/13 09:08:11;;;;;;;8.30;1.80;;;19.30;99.90;;;;;;5020933;28;20122;-72
2022/09/13 09:10:42;;;;;;;5.88;1.20;;;19.20;99.90;;;;;;5013115;28;20520;-71
2022/09/13 09:13:14;;;;;;;7.32;1.50;;;19.20;99.90;;;;;;5014656;28;20125;-71
2022/09/13 09:15:45;;;;;;;7.65;1.58;;;19.20;99.90;;;;;;5016094;28;20053;-72
2022/09/13 09:18:22;;;;;;;6.28;1.40;;;19.30;99.90;;;;;;5014810;28;20119;-72
2022/09/13 09:20:58;;;;;;;5.90;1.35;;;19.40;99.90;;;;;;5016311;28;20054;-72
2022/09/13 09:23:30;;;;;;;10.38;1.92;;;19.40;99.90;;;;;;5018218;28;20045;-72
2022/09/13 09:26:15;;;;;;;5.97;1.33;;;19.60;99.90;;;;;;5020899;28;20075;-72
2022/09/13 09:28:44;;;;;;;7.20;1.30;;;19.80;99.90;;;;;;5020911;28;20056;-72
2022/09/13 09:31:22;;;;;;;11.27;1.90;;;19.80;99.90;;;;;;4989323;28;20060;-72
2022/09/13 09:33:59;;;;;;;6.63;1.35;;;19.80;99.90;;;;;;5018313;28;20073;-75
2022/09/13 09:36:45;;;;;;;8.85;1.98;;;19.90;99.90;;;;;;5017138;28;20120;-72
2022/09/13 09:39:14;;;;;;;7.43;1.38;;;20.00;99.90;;;;;;5016121;28;20103;-73
2022/09/13 09:41:42;;;;;;;7.72;1.42;;;20.20;99.90;;;;;;5016824;28;20423;-73
2022/09/13 09:44:17;;;;;;;7.85;1.50;;;20.30;99.90;;;;;;5016454;28;20504;-72
2022/09/13 09:46:56;;;;;;;8.18;1.23;;;20.30;99.90;;;;;;5003862;28;20065;-72
2022/09/13 09:52:27;;;;;;;6.78;1.48;;;20.30;99.90;;;;;;5015545;28;20296;-72
2022/09/13 09:55:11;;;;;;;6.28;1.40;;;20.30;99.90;;;;;;5015369;28;20053;-73
2022/09/13 09:57:51;;;;;;;6.50;1.60;;;20.40;99.90;;;;;;5013921;28;20064;-73
2022/09/13 10:00:17;;;;;;;4.82;1.02;;;20.30;99.90;;;;;;5019745;28;20034;-73
2022/09/13 10:02:44;;;;;;;8.80;1.73;;;20.30;99.90;;;;;;4983270;28;20091;-72
2022/09/13 10:05:13;;;;;;;6.28;1.40;;;20.30;99.90;;;;;;5021501;28;20048;-72
2022/09/13 10:07:40;;;;;;;3.50;1.10;;;20.50;99.90;;;;;;5011227;28;20577;-72
2022/09/13 10:10:22;;;;;;;6.68;1.75;;;20.60;99.90;;;;;;5005817;28;20532;-72
2022/09/13 10:12:56;;;;;;;8.00;1.40;;;20.50;99.90;;;;;;5020383;28;20116;-73
2022/09/13 10:15:31;;;;;;;5.13;1.40;;;20.40;99.90;;;;;;5021114;28;20570;-72
2022/09/13 10:18:05;;;;;;;9.05;1.45;;;20.20;99.90;;;;;;4998341;28;20045;-73
2022/09/13 10:20:34;;;;;;;9.40;1.50;;;20.00;99.90;;;;;;5020716;28;20519;-72
2022/09/13 10:23:13;;;;;;;8.85;1.50;;;19.90;99.90;;;;;;5019249;28;20045;-72
2022/09/13 10:25:43;;;;;;;10.68;2.25;;;19.80;99.90;;;;;;5010725;28;20044;-72
2022/09/13 10:28:18;;;;;;;7.05;1.52;;;19.70;99.90;;;;;;5014340;28;20556;-73
2022/09/13 10:31:17;;;;;;;8.10;1.60;;;19.60;99.90;;;;;;5011168;28;20053;-72
2022/09/13 10:33:48;;;;;;;4.32;1.20;;;19.60;99.90;;;;;;4983434;28;20807;-73
2022/09/13 10:36:20;;;;;;;8.07;1.80;;;19.80;99.90;;;;;;5017914;28;20112;-73
2022/09/13 10:38:56;;;;;;;8.00;1.70;;;19.90;99.90;;;;;;5021123;28;20060;-72
2022/09/13 10:41:25;;;;;;;8.18;1.67;;;20.10;99.90;;;;;;5013204;28;20038;-72
2022/09/13 10:43:59;;;;;;;6.65;1.30;;;20.30;99.90;;;;;;4995037;28;20132;-73
2022/09/13 10:46:28;;;;;;;7.47;1.55;;;20.20;99.90;;;;;;5017954;28;20069;-71
2022/09/13 10:48:55;;;;;;;7.28;1.55;;;20.10;99.90;;;;;;5010775;28;20048;-72
2022/09/13 10:51:26;;;;;;;8.07;1.40;;;20.00;99.90;;;;;;4996098;28;20073;-72
2022/09/13 10:54:17;;;;;;;5.93;1.42;;;20.10;99.90;;;;;;5011727;28;20504;-72
2022/09/13 10:56:44;;;;;;;6.85;1.23;;;20.20;99.90;;;;;;5016488;28;20334;-71
2022/09/13 10:59:19;;;;;;;7.03;1.40;;;20.30;99.90;;;;;;4993101;28;20073;-73
2022/09/13 11:01:51;;;;;;;6.10;1.35;;;20.40;99.90;;;;;;5017591;28;21455;-74
2022/09/13 11:04:48;;;;;;;7.18;1.40;;;20.50;99.90;;;;;;5019937;28;20044;-73
2022/09/13 11:07:47;;;;;;;6.13;1.20;;;20.60;99.90;;;;;;5015093;28;20042;-72
2022/09/13 11:10:30;;;;;;;8.23;1.40;;;20.70;99.90;;;;;;5015579;28;21784;-72
2022/09/13 11:12:56;;;;;;;9.98;1.50;;;20.70;99.90;;;;;;5013348;28;20057;-72
2022/09/13 11:15:27;;;;;;;10.23;1.50;;;20.40;99.90;;;;;;5015245;28;20466;-72
2022/09/13 11:18:35;;;;;;;7.90;1.50;;;20.30;99.90;;;;;;4998025;28;20056;-72
2022/09/13 11:21:11;;;;;;;6.72;1.65;;;20.30;99.90;;;;;;5015467;28;20033;-71
2022/09/13 11:24:14;;;;;;;8.48;1.83;;;20.40;99.90;;;;;;5016241;28;20125;-72
2022/09/13 11:26:59;;;;;;;5.97;1.38;;;20.50;99.90;;;;;;5017246;28;20047;-72
2022/09/13 11:29:56;;;;;;;8.32;1.70;;;20.70;99.90;;;;;;5017403;28;20042;-72
2022/09/13 11:32:40;;;;;;;5.65;1.30;;;20.80;99.90;;;;;;5020935;28;20041;-72
2022/09/13 11:35:40;;;;;;;6.38;1.40;;;20.70;99.90;;;;;;5006812;28;20034;-72
2022/09/13 11:38:52;;;;;;;7.47;1.70;;;20.70;99.90;;;;;;5015902;28;20565;-73
2022/09/13 11:41:31;;;;;;;6.72;1.40;;;21.00;99.90;;;;;;4964877;28;20057;-72
2022/09/13 11:44:00;;;;;;;6.47;1.20;;;21.00;99.90;;;;;;5016796;28;20038;-72
2022/09/13 11:46:39;;;;;;;5.57;1.42;;;21.10;99.90;;;;;;5013429;28;20568;-72
2022/09/13 11:49:26;;;;;;;8.80;1.75;;;21.20;99.90;;;;;;5014575;28;20033;-72
2022/09/13 11:52:21;;;;;;;12.88;1.70;;;21.20;99.90;;;;;;4993164;28;20087;-71
2022/09/13 11:55:02;;;;;;;10.85;2.00;;;21.20;99.90;;;;;;5018454;28;20056;-72
2022/09/13 11:57:35;;;;;;;7.47;1.38;;;21.20;99.90;;;;;;5019382;28;20049;-72
2022/09/13 12:00:07;;;;;;;7.18;1.30;;;21.00;99.90;;;;;;5022338;28;20080;-73
2022/09/13 12:02:48;;;;;;;5.70;1.40;;;20.70;99.90;;;;;;4996329;28;21755;-72
2022/09/13 12:05:21;;;;;;;8.25;1.60;;;20.60;99.90;;;;;;5020852;28;20585;-72
2022/09/13 12:08:08;;;;;;;7.63;1.60;;;20.70;99.90;;;;;;4995792;28;20580;-71
2022/09/13 12:10:37;;;;;;;10.07;1.73;;;20.70;99.90;;;;;;5015921;28;20041;-72
2022/09/13 12:13:08;;;;;;;8.07;1.63;;;20.60;99.90;;;;;;5019291;28;20068;-72
2022/09/13 12:15:41;;;;;;;8.07;1.55;;;20.60;99.90;;;;;;5014163;28;20044;-72
2022/09/13 12:18:21;;;;;;;6.38;1.38;;;20.50;99.90;;;;;;5013064;28;20053;-72
2022/09/13 12:20:54;;;;;;;9.38;1.90;;;20.60;99.90;;;;;;5019338;28;20051;-72
2022/09/13 12:23:32;;;;;;;6.60;1.50;;;20.60;99.90;;;;;;5013454;28;20034;-73
2022/09/13 12:26:03;;;;;;;9.13;1.88;;;20.60;99.90;;;;;;5024393;28;20068;-72
2022/09/13 12:28:50;;;;;;;7.43;1.60;;;20.70;99.90;;;;;;5017952;28;20046;-73
2022/09/13 12:31:21;;;;;;;7.15;1.45;;;20.90;99.90;;;;;;4997451;28;20052;-73
2022/09/13 12:33:47;;;;;;;9.25;1.95;;;20.90;99.90;;;;;;5025511;28;20040;-73
2022/09/13 12:36:19;;;;;;;12.45;2.25;;;21.10;99.90;;;;;;4984681;28;20038;-72
2022/09/13 12:39:10;;;;;;;9.35;1.95;;;21.10;99.90;;;;;;5023542;28;20124;-72
2022/09/13 12:41:55;;;;;;;9.10;1.85;;;21.00;99.90;;;;;;4994920;28;20093;-73
2022/09/13 12:44:38;;;;;;;10.60;1.77;;;20.90;99.90;;;;;;5018876;28;20049;-72
2022/09/13 12:47:22;;;;;;;10.48;1.73;;;20.70;99.90;;;;;;4999037;28;20044;-72
2022/09/13 12:50:06;;;;;;;6.80;1.50;;;20.60;99.90;;;;;;5001893;28;20053;-72
2022/09/13 12:52:47;;;;;;;9.38;1.73;;;20.40;99.90;;;;;;5015690;28;20045;-73
2022/09/13 12:55:48;;;;;;;9.15;1.58;;;20.30;99.90;;;;;;5023427;28;20054;-72
2022/09/13 12:58:46;;;;;;;7.18;1.60;;;20.10;99.90;;;;;;5021067;28;20060;-72
2022/09/13 13:01:17;;;;;;;8.13;1.55;;;20.10;99.90;;;;;;5019143;28;20537;-72
2022/09/13 13:03:55;;;;;;;10.85;1.70;;;20.30;99.90;;;;;;4994512;28;20276;-72
2022/09/13 13:06:31;;;;;;;10.00;1.77;;;20.30;99.90;;;;;;5021545;28;20108;-73
2022/09/13 13:09:00;;;;;;;10.43;1.98;;;20.30;99.90;;;;;;5016952;28;20033;-72
2022/09/13 13:11:30;;;;;;;8.95;1.92;;;20.30;99.90;;;;;;5015305;28;20030;-71
2022/09/13 13:13:57;;;;;;;9.50;1.75;;;20.20;99.90;;;;;;5000934;28;20073;-72
2022/09/13 13:16:32;;;;;;;8.95;1.90;;;20.20;99.90;;;;;;5021536;28;20037;-72
2022/09/13 13:19:04;;;;;;;9.68;1.60;;;20.20;99.90;;;;;;5019046;28;20439;-71
2022/09/13 13:21:39;;;;;;;10.55;2.03;;;20.20;99.90;;;;;;5012677;28;20143;-72
2022/09/13 13:24:31;;;;;;;6.13;1.45;;;20.30;99.90;;;;;;5018646;28;20187;-73